createdAt,value
2018-02-01T00:01:00.717Z,5.92
2018-02-01T00:03:28.260Z,5.92
2018-02-01T00:05:55.761Z,5.83
2018-02-01T00:08:23.289Z,5.82
2018-02-01T00:10:50.836Z,5.78
2018-02-01T00:13:18.329Z,5.69
2018-02-01T00:15:45.839Z,5.62
2018-02-01T00:18:13.327Z,5.59
2018-02-01T00:20:40.876Z,5.60
2018-02-01T00:23:08.380Z,5.60
2018-02-01T00:25:35.868Z,5.63
2018-02-01T00:28:03.388Z,5.65
2018-02-01T00:30:30.904Z,5.67
2018-02-01T00:32:58.446Z,5.67
2018-02-01T00:35:25.962Z,5.68
2018-02-01T00:37:53.480Z,5.67
2018-02-01T00:40:21.041Z,5.67
2018-02-01T00:42:48.538Z,5.66
2018-02-01T00:45:16.036Z,5.66
2018-02-01T00:47:43.609Z,5.66
2018-02-01T00:50:11.137Z,5.61
2018-02-01T00:52:38.644Z,5.68
2018-02-01T00:55:06.201Z,5.68
2018-02-01T00:57:33.717Z,5.62
2018-02-01T01:00:01.305Z,5.54
2018-02-01T01:02:28.844Z,5.47
2018-02-01T01:04:56.425Z,5.42
2018-02-01T01:07:23.919Z,5.38
2018-02-01T01:09:51.421Z,5.36
2018-02-01T01:12:18.909Z,5.36
2018-02-01T01:14:46.460Z,5.34
2018-02-01T01:17:13.958Z,5.34
2018-02-01T01:19:41.483Z,5.32
2018-02-01T01:22:09.147Z,5.25
2018-02-01T01:24:36.664Z,5.19
2018-02-01T01:27:04.452Z,5.14
2018-02-01T01:29:32.008Z,5.12
2018-02-01T01:31:59.584Z,5.09
2018-02-01T01:34:27.340Z,5.07
2018-02-01T01:36:54.887Z,5.08
2018-02-01T01:39:22.405Z,5.07
2018-02-01T01:41:49.952Z,5.00
2018-02-01T01:44:17.500Z,4.99
2018-02-01T01:46:44.989Z,4.97
2018-02-01T01:49:12.629Z,4.97
2018-02-01T01:51:40.141Z,4.94
2018-02-01T01:54:07.669Z,4.94
2018-02-01T01:56:35.172Z,4.88
2018-02-01T01:59:02.661Z,4.87
2018-02-01T02:01:30.292Z,4.90
2018-02-01T02:03:57.835Z,4.88
2018-02-01T02:06:25.337Z,4.85
2018-02-01T02:08:52.836Z,4.85
2018-02-01T02:11:20.344Z,4.87
2018-02-01T02:13:47.848Z,4.86
2018-02-01T02:16:15.360Z,4.83
2018-02-01T02:18:42.992Z,4.77
2018-02-01T02:21:10.518Z,4.72
2018-02-01T02:23:38.129Z,4.72
2018-02-01T02:26:05.681Z,4.74
2018-02-01T02:28:33.193Z,4.75
2018-02-01T02:31:00.720Z,4.76
2018-02-01T02:33:28.256Z,4.77
2018-02-01T02:35:55.816Z,4.76
2018-02-01T02:38:23.304Z,4.75
2018-02-01T02:40:50.870Z,4.76
2018-02-01T02:43:18.393Z,4.76
2018-02-01T02:45:45.906Z,4.76
2018-02-01T02:48:13.410Z,4.76
2018-02-01T02:50:40.959Z,4.74
2018-02-01T02:53:08.493Z,4.75
2018-02-01T02:55:36.010Z,4.75
2018-02-01T02:58:03.504Z,4.76
2018-02-01T03:00:31.105Z,4.74
2018-02-01T03:02:58.601Z,4.72
2018-02-01T03:05:26.107Z,4.69
2018-02-01T03:07:53.609Z,4.64
2018-02-01T03:10:21.105Z,4.61
2018-02-01T03:12:48.612Z,4.59
2018-02-01T03:15:16.117Z,4.61
2018-02-01T03:17:43.699Z,4.62
2018-02-01T03:20:11.253Z,4.61
2018-02-01T03:22:38.760Z,4.61
2018-02-01T03:25:06.378Z,4.61
2018-02-01T03:27:33.957Z,4.62
2018-02-01T03:30:01.517Z,4.62
2018-02-01T03:32:29.063Z,4.59
2018-02-01T03:34:56.582Z,4.59
2018-02-01T03:37:24.101Z,4.58
2018-02-01T03:39:51.613Z,4.58
2018-02-01T03:42:19.128Z,4.61
2018-02-01T03:44:46.655Z,4.59
2018-02-01T03:47:14.169Z,4.58
2018-02-01T03:49:41.698Z,4.54
2018-02-01T03:52:09.204Z,4.54
2018-02-01T03:54:36.702Z,4.54
2018-02-01T03:57:04.240Z,4.52
2018-02-01T03:59:31.732Z,4.49
2018-02-01T04:01:59.252Z,4.49
2018-02-01T04:04:26.755Z,4.48
2018-02-01T04:06:54.368Z,4.48
2018-02-01T04:09:24.205Z,4.47
2018-02-01T04:11:51.735Z,4.46
2018-02-01T04:14:20.122Z,4.47
2018-02-01T04:16:47.682Z,4.49
2018-02-01T04:19:15.218Z,4.46
2018-02-01T04:21:43.325Z,4.44
2018-02-01T04:24:10.841Z,4.41
2018-02-01T04:26:38.339Z,4.38
2018-02-01T04:29:05.885Z,4.35
2018-02-01T04:31:33.397Z,4.34
2018-02-01T04:34:00.930Z,4.34
2018-02-01T04:36:29.096Z,4.36
2018-02-01T04:38:56.597Z,4.37
2018-02-01T04:41:24.121Z,4.39
2018-02-01T04:43:51.655Z,4.40
2018-02-01T04:46:19.918Z,4.42
2018-02-01T04:48:47.489Z,4.43
2018-02-01T04:51:15.133Z,4.45
2018-02-01T04:53:42.674Z,4.45
2018-02-01T04:56:10.213Z,4.45
2018-02-01T04:58:37.714Z,4.46
2018-02-01T05:01:05.249Z,4.43
2018-02-01T05:03:32.855Z,4.43
2018-02-01T05:06:00.400Z,4.43
2018-02-01T05:08:27.943Z,4.43
2018-02-01T05:10:55.474Z,4.42
2018-02-01T05:13:23.002Z,4.43
2018-02-01T05:15:50.524Z,4.42
2018-02-01T05:18:18.045Z,4.38
2018-02-01T05:20:45.569Z,4.37
2018-02-01T05:23:13.078Z,4.39
2018-02-01T05:25:40.618Z,4.41
2018-02-01T05:28:08.150Z,4.43
2018-02-01T05:30:35.686Z,4.45
2018-02-01T05:33:03.361Z,4.46
2018-02-01T05:35:30.914Z,4.47
2018-02-01T05:38:04.197Z,4.45
2018-02-01T05:40:32.072Z,4.44
2018-02-01T05:42:59.593Z,4.43
2018-02-01T05:45:27.403Z,4.41
2018-02-01T05:47:54.897Z,4.43
2018-02-01T05:50:22.457Z,4.45
2018-02-01T05:52:49.997Z,4.42
2018-02-01T05:55:17.547Z,4.39
2018-02-01T05:57:46.542Z,4.34
2018-02-01T06:00:14.096Z,4.32
2018-02-01T06:02:41.665Z,4.29
2018-02-01T06:05:09.787Z,4.28
2018-02-01T06:07:37.327Z,4.25
2018-02-01T06:10:04.853Z,4.23
2018-02-01T06:12:32.348Z,4.18
2018-02-01T06:14:59.880Z,4.13
2018-02-01T06:17:27.381Z,4.10
2018-02-01T06:19:54.872Z,4.08
2018-02-01T06:22:22.451Z,4.08
2018-02-01T06:24:49.948Z,4.04
2018-02-01T06:27:17.436Z,4.05
2018-02-01T06:29:44.964Z,4.05
2018-02-01T06:32:12.489Z,4.06
2018-02-01T06:34:40.213Z,4.09
2018-02-01T06:37:07.725Z,4.08
2018-02-01T06:39:35.242Z,4.03
2018-02-01T06:42:02.768Z,3.99
2018-02-01T06:44:30.269Z,3.93
2018-02-01T06:46:57.777Z,3.89
2018-02-01T06:49:25.291Z,3.86
2018-02-01T06:51:52.809Z,3.84
2018-02-01T06:54:20.406Z,3.81
2018-02-01T06:56:47.902Z,3.77
2018-02-01T06:59:15.412Z,3.73
2018-02-01T07:01:42.922Z,3.71
2018-02-01T07:04:12.698Z,3.71
2018-02-01T07:06:40.272Z,3.70
2018-02-01T07:09:07.794Z,3.71
2018-02-01T07:11:35.309Z,3.70
2018-02-01T07:14:02.826Z,3.69
2018-02-01T07:16:30.324Z,3.70
2018-02-01T07:18:57.853Z,3.70
2018-02-01T07:21:25.388Z,3.69
2018-02-01T07:23:53.065Z,3.69
2018-02-01T07:26:20.565Z,3.71
2018-02-01T07:28:48.067Z,3.69
2018-02-01T07:31:15.649Z,3.69
2018-02-01T07:33:43.263Z,3.65
2018-02-01T07:36:10.782Z,3.59
2018-02-01T07:38:38.275Z,3.59
2018-02-01T07:41:05.765Z,3.59
2018-02-01T07:43:33.320Z,3.56
2018-02-01T07:46:02.326Z,3.58
2018-02-01T07:48:29.895Z,3.62
2018-02-01T07:50:57.431Z,3.70
2018-02-01T07:53:24.958Z,3.67
2018-02-01T07:55:52.587Z,3.68
2018-02-01T07:58:20.108Z,3.65
2018-02-01T08:00:47.604Z,3.64
2018-02-01T08:03:15.150Z,3.61
2018-02-01T08:05:42.649Z,3.63
2018-02-01T08:08:10.175Z,3.66
2018-02-01T08:10:37.681Z,3.70
2018-02-01T08:13:05.224Z,3.68
2018-02-01T08:15:32.746Z,3.68
2018-02-01T08:18:00.237Z,3.67
2018-02-01T08:20:27.803Z,3.58
2018-02-01T08:22:55.332Z,3.59
2018-02-01T08:25:22.900Z,3.60
2018-02-01T08:27:50.433Z,3.65
2018-02-01T08:30:17.929Z,3.71
2018-02-01T08:32:45.452Z,3.80
2018-02-01T08:35:13.242Z,3.84
2018-02-01T08:37:40.747Z,3.81
2018-02-01T08:40:08.345Z,3.79
2018-02-01T08:42:36.121Z,3.80
2018-02-01T08:45:03.618Z,3.83
2018-02-01T08:47:31.124Z,3.88
2018-02-01T08:49:58.651Z,3.93
2018-02-01T08:52:26.170Z,3.96
2018-02-01T08:54:53.724Z,3.93
2018-02-01T08:57:21.250Z,3.90
2018-02-01T08:59:48.749Z,4.02
2018-02-01T09:02:16.282Z,4.08
2018-02-01T09:04:43.772Z,4.11
2018-02-01T09:07:11.282Z,4.14
2018-02-01T09:09:38.805Z,4.17
2018-02-01T09:12:06.306Z,4.07
2018-02-01T09:14:33.934Z,4.05
2018-02-01T09:17:01.461Z,4.04
2018-02-01T09:19:28.983Z,4.07
2018-02-01T09:21:56.513Z,4.07
2018-02-01T09:24:24.062Z,4.00
2018-02-01T09:26:51.584Z,3.97
2018-02-01T09:29:19.108Z,4.00
2018-02-01T09:31:46.640Z,4.12
2018-02-01T09:34:14.140Z,4.20
2018-02-01T09:36:41.830Z,4.27
2018-02-01T09:39:09.353Z,4.34
2018-02-01T09:41:36.926Z,4.44
2018-02-01T09:44:04.453Z,4.55
2018-02-01T09:46:32.025Z,4.75
2018-02-01T09:48:59.541Z,4.84
2018-02-01T09:51:27.158Z,4.93
2018-02-01T09:53:54.720Z,5.03
2018-02-01T09:56:22.240Z,5.07
2018-02-01T09:58:49.767Z,5.11
2018-02-01T10:01:17.394Z,5.05
2018-02-01T10:03:44.882Z,5.01
2018-02-01T10:06:12.410Z,4.98
2018-02-01T10:08:39.970Z,4.99
2018-02-01T10:11:07.488Z,4.95
2018-02-01T10:13:35.085Z,5.01
2018-02-01T10:16:02.647Z,5.02
2018-02-01T10:18:30.136Z,5.04
2018-02-01T10:20:57.672Z,4.94
2018-02-01T10:23:25.220Z,4.95
2018-02-01T10:25:52.722Z,4.98
2018-02-01T10:28:20.241Z,5.05
2018-02-01T10:30:47.796Z,5.12
2018-02-01T10:33:15.382Z,5.15
2018-02-01T10:35:42.944Z,5.15
2018-02-01T10:38:10.478Z,5.34
2018-02-01T10:40:38.014Z,5.55
2018-02-01T10:43:05.594Z,5.55
2018-02-01T10:45:33.145Z,5.58
2018-02-01T10:48:00.734Z,5.66
2018-02-01T10:50:28.249Z,5.61
2018-02-01T10:52:55.764Z,5.71
2018-02-01T10:55:23.307Z,5.86
2018-02-01T10:57:50.825Z,5.78
2018-02-01T11:00:18.342Z,5.78
2018-02-01T11:02:45.873Z,5.76
2018-02-01T11:05:14.017Z,5.74
2018-02-01T11:07:41.553Z,5.84
2018-02-01T11:10:09.182Z,5.88
2018-02-01T11:12:36.678Z,5.90
2018-02-01T11:15:04.285Z,6.06
2018-02-01T11:17:31.856Z,6.23
2018-02-01T11:19:59.381Z,6.33
2018-02-01T11:22:26.889Z,6.17
2018-02-01T11:24:54.396Z,6.30
2018-02-01T11:27:21.908Z,6.33
2018-02-01T11:29:49.436Z,6.27
2018-02-01T11:32:16.992Z,6.22
2018-02-01T11:34:44.492Z,6.13
2018-02-01T11:37:12.012Z,6.04
2018-02-01T11:39:39.522Z,6.11
2018-02-01T11:42:07.232Z,6.23
2018-02-01T11:44:34.791Z,6.24
2018-02-01T11:47:02.346Z,6.24
2018-02-01T11:49:29.896Z,6.24
2018-02-01T11:51:57.413Z,6.32
2018-02-01T11:54:24.928Z,6.20
2018-02-01T11:56:52.465Z,6.02
2018-02-01T11:59:20.004Z,5.93
2018-02-01T12:01:47.529Z,5.87
2018-02-01T12:04:15.081Z,5.91
2018-02-01T12:06:42.616Z,6.00
2018-02-01T12:09:10.184Z,6.09
2018-02-01T12:11:37.690Z,6.16
2018-02-01T12:14:05.374Z,6.24
2018-02-01T12:16:32.953Z,6.22
2018-02-01T12:19:00.510Z,6.15
2018-02-01T12:21:28.017Z,6.16
2018-02-01T12:23:55.546Z,6.16
2018-02-01T12:26:23.076Z,6.25
2018-02-01T12:28:50.593Z,6.27
2018-02-01T12:31:18.111Z,6.17
2018-02-01T12:33:45.630Z,6.18
2018-02-01T12:36:13.246Z,6.29
2018-02-01T12:38:40.764Z,6.24
2018-02-01T12:41:08.361Z,6.24
2018-02-01T12:43:35.928Z,6.28
2018-02-01T12:46:03.476Z,6.22
2018-02-01T12:48:30.973Z,6.25
2018-02-01T12:50:58.470Z,6.26
2018-02-01T12:53:25.976Z,6.24
2018-02-01T12:55:53.717Z,6.26
2018-02-01T12:58:21.208Z,6.32
2018-02-01T13:00:48.712Z,6.31
2018-02-01T13:03:16.229Z,6.30
2018-02-01T13:05:43.712Z,6.23
2018-02-01T13:08:11.220Z,6.22
2018-02-01T13:10:38.768Z,6.26
2018-02-01T13:13:06.303Z,6.30
2018-02-01T13:15:33.874Z,6.32
2018-02-01T13:18:01.429Z,6.36
2018-02-01T13:20:28.953Z,6.35
2018-02-01T13:22:56.464Z,6.40
2018-02-01T13:25:24.135Z,6.42
2018-02-01T13:27:51.644Z,6.46
2018-02-01T13:30:19.161Z,6.44
2018-02-01T13:32:46.697Z,6.46
2018-02-01T13:35:14.506Z,6.44
2018-02-01T13:37:42.002Z,6.46
2018-02-01T13:40:09.584Z,6.49
2018-02-01T13:42:37.440Z,6.48
2018-02-01T13:45:04.990Z,6.49
2018-02-01T13:47:32.481Z,6.50
2018-02-01T13:49:59.976Z,6.48
2018-02-01T13:52:27.467Z,6.45
2018-02-01T13:54:54.990Z,6.40
2018-02-01T13:57:22.506Z,6.44
2018-02-01T13:59:50.048Z,6.46
2018-02-01T14:02:17.537Z,6.42
2018-02-01T14:04:45.049Z,6.38
2018-02-01T14:07:12.637Z,6.41
2018-02-01T14:09:40.150Z,6.42
2018-02-01T14:12:07.640Z,6.39
2018-02-01T14:14:35.152Z,6.36
2018-02-01T14:17:02.661Z,6.32
2018-02-01T14:19:30.431Z,6.28
2018-02-01T14:21:57.981Z,6.26
2018-02-01T14:24:25.496Z,6.24
2018-02-01T14:26:53.029Z,6.18
2018-02-01T14:29:20.522Z,6.12
2018-02-01T14:31:48.022Z,6.10
2018-02-01T14:34:15.582Z,5.99
2018-02-01T14:36:43.126Z,5.91
2018-02-01T14:39:11.401Z,5.89
2018-02-01T14:41:39.163Z,5.88
2018-02-01T14:44:06.656Z,5.89
2018-02-01T14:46:34.293Z,5.93
2018-02-01T14:49:01.838Z,5.94
2018-02-01T14:51:29.415Z,5.98
2018-02-01T14:53:56.934Z,5.95
2018-02-01T14:56:24.549Z,5.91
2018-02-01T14:58:52.068Z,5.79
2018-02-01T15:01:19.650Z,5.72
2018-02-01T15:03:47.206Z,5.70
2018-02-01T15:06:14.832Z,5.69
2018-02-01T15:08:42.500Z,5.63
2018-02-01T15:11:10.094Z,5.58
2018-02-01T15:13:37.722Z,5.54
2018-02-01T15:16:05.418Z,5.50
2018-02-01T15:18:32.979Z,5.46
2018-02-01T15:21:00.484Z,5.43
2018-02-01T15:23:28.030Z,5.37
2018-02-01T15:25:55.554Z,5.36
2018-02-01T15:28:23.057Z,5.33
2018-02-01T15:30:50.572Z,5.29
2018-02-01T15:33:18.152Z,5.20
2018-02-01T15:35:45.696Z,5.15
2018-02-01T15:38:13.229Z,5.17
2018-02-01T15:40:40.828Z,5.19
2018-02-01T15:43:08.485Z,5.21
2018-02-01T15:45:36.037Z,5.21
2018-02-01T15:48:03.798Z,5.22
2018-02-01T15:50:31.360Z,5.25
2018-02-01T15:52:58.914Z,5.25
2018-02-01T15:55:26.497Z,5.24
2018-02-01T15:57:54.008Z,5.22
2018-02-01T16:00:21.513Z,5.21
2018-02-01T16:02:49.270Z,5.13
2018-02-01T16:05:16.814Z,5.04
2018-02-01T16:07:44.388Z,4.96
2018-02-01T16:10:12.031Z,4.82
2018-02-01T16:12:39.539Z,4.71
2018-02-01T16:15:07.057Z,4.63
2018-02-01T16:17:34.573Z,4.56
2018-02-01T16:20:02.116Z,4.53
2018-02-01T16:22:29.731Z,4.50
2018-02-01T16:24:57.239Z,4.48
2018-02-01T16:27:24.765Z,4.47
2018-02-01T16:29:52.341Z,4.45
2018-02-01T16:32:19.884Z,4.44
2018-02-01T16:34:47.413Z,4.41
2018-02-01T16:37:14.947Z,4.39
2018-02-01T16:39:42.717Z,4.35
2018-02-01T16:42:10.241Z,4.34
2018-02-01T16:44:37.758Z,4.36
2018-02-01T16:47:05.328Z,4.36
2018-02-01T16:49:32.841Z,4.35
2018-02-01T16:52:00.564Z,4.33
2018-02-01T16:54:28.107Z,4.28
2018-02-01T16:56:55.601Z,4.24
2018-02-01T16:59:23.217Z,4.16
2018-02-01T17:01:50.762Z,4.09
2018-02-01T17:04:18.260Z,4.05
2018-02-01T17:06:45.772Z,4.01
2018-02-01T17:09:13.349Z,3.95
2018-02-01T17:11:40.865Z,3.83
2018-02-01T17:14:08.389Z,3.77
2018-02-01T17:16:35.918Z,3.71
2018-02-01T17:19:03.432Z,3.73
2018-02-01T17:21:32.087Z,3.69
2018-02-01T17:23:59.611Z,3.68
2018-02-01T17:26:27.225Z,3.69
2018-02-01T17:28:54.709Z,3.67
2018-02-01T17:31:22.223Z,3.63
2018-02-01T17:33:49.768Z,3.59
2018-02-01T17:36:17.289Z,3.54
2018-02-01T17:38:44.803Z,3.49
2018-02-01T17:41:12.324Z,3.45
2018-02-01T17:43:39.847Z,3.40
2018-02-01T17:46:07.395Z,3.39
2018-02-01T17:48:34.910Z,3.33
2018-02-01T17:51:02.464Z,3.30
2018-02-01T17:53:29.995Z,3.28
2018-02-01T17:55:57.525Z,3.28
2018-02-01T17:58:25.066Z,3.24
2018-02-01T18:00:52.589Z,3.37
2018-02-01T18:03:20.089Z,3.63
2018-02-01T18:05:47.646Z,3.71
2018-02-01T18:08:15.157Z,3.60
2018-02-01T18:10:42.709Z,3.46
2018-02-01T18:13:10.330Z,3.33
2018-02-01T18:15:37.849Z,3.23
2018-02-01T18:18:05.381Z,3.17
2018-02-01T18:20:33.030Z,3.09
2018-02-01T18:23:00.560Z,3.04
2018-02-01T18:25:28.105Z,3.02
2018-02-01T18:27:55.629Z,2.97
2018-02-01T18:30:23.137Z,2.96
2018-02-01T18:32:51.240Z,2.95
2018-02-01T18:35:20.201Z,2.95
2018-02-01T18:37:48.914Z,2.87
2018-02-01T18:40:18.011Z,2.83
2018-02-01T18:42:45.553Z,2.74
2018-02-01T18:45:13.048Z,2.70
2018-02-01T18:47:40.564Z,2.66
2018-02-01T18:50:08.115Z,2.64
2018-02-01T18:52:35.611Z,2.57
2018-02-01T18:55:03.131Z,2.53
2018-02-01T18:57:30.649Z,2.58
2018-02-01T18:59:58.178Z,2.58
2018-02-01T19:02:25.807Z,2.59
2018-02-01T19:04:53.963Z,2.55
2018-02-01T19:07:21.480Z,2.48
2018-02-01T19:09:49.020Z,2.42
2018-02-01T19:12:16.529Z,2.37
2018-02-01T19:14:44.062Z,2.39
2018-02-01T19:17:11.679Z,2.41
2018-02-01T19:19:39.189Z,2.43
2018-02-01T19:22:06.690Z,2.42
2018-02-01T19:24:34.192Z,2.44
2018-02-01T19:27:01.722Z,2.45
2018-02-01T19:29:29.277Z,2.46
2018-02-01T19:31:57.138Z,2.45
2018-02-01T19:34:24.673Z,2.44
2018-02-01T19:36:52.284Z,2.39
2018-02-01T19:39:19.809Z,2.36
2018-02-01T19:41:47.341Z,2.31
2018-02-01T19:44:14.872Z,2.32
2018-02-01T19:46:42.396Z,2.30
2018-02-01T19:49:09.933Z,2.29
2018-02-01T19:51:37.517Z,2.28
2018-02-01T19:54:05.103Z,2.30
2018-02-01T19:56:32.631Z,2.26
2018-02-01T19:59:00.161Z,2.22
2018-02-01T20:01:27.704Z,2.18
2018-02-01T20:03:55.220Z,2.18
2018-02-01T20:06:22.756Z,2.14
2018-02-01T20:08:50.328Z,2.11
2018-02-01T20:11:17.825Z,2.09
2018-02-01T20:13:45.343Z,2.05
2018-02-01T20:16:13.105Z,2.04
2018-02-01T20:18:40.623Z,2.03
2018-02-01T20:21:08.241Z,2.04
2018-02-01T20:23:35.745Z,2.01
2018-02-01T20:26:03.242Z,1.97
2018-02-01T20:28:30.830Z,1.97
2018-02-01T20:30:58.352Z,1.98
2018-02-01T20:33:25.865Z,1.97
2018-02-01T20:35:53.397Z,1.98
2018-02-01T20:38:20.940Z,2.01
2018-02-01T20:40:48.504Z,1.95
2018-02-01T20:43:16.008Z,1.90
2018-02-01T20:45:43.639Z,1.90
2018-02-01T20:48:11.178Z,1.86
2018-02-01T20:50:38.700Z,1.84
2018-02-01T20:53:06.222Z,1.78
2018-02-01T20:55:33.861Z,1.78
2018-02-01T20:58:01.420Z,1.79
2018-02-01T21:00:28.949Z,1.80
2018-02-01T21:02:56.501Z,1.80
2018-02-01T21:05:24.029Z,1.79
2018-02-01T21:07:51.534Z,1.81
2018-02-01T21:10:19.069Z,1.84
2018-02-01T21:12:46.670Z,1.82
2018-02-01T21:15:14.598Z,1.85
2018-02-01T21:17:42.142Z,1.84
2018-02-01T21:20:09.843Z,1.83
2018-02-01T21:22:37.412Z,1.84
2018-02-01T21:25:04.914Z,1.83
2018-02-01T21:27:32.452Z,1.91
2018-02-01T21:29:59.959Z,1.87
2018-02-01T21:32:27.553Z,1.81
2018-02-01T21:34:55.066Z,1.82
2018-02-01T21:37:22.600Z,1.83
2018-02-01T21:39:50.113Z,1.85
2018-02-01T21:42:17.691Z,1.91
2018-02-01T21:44:45.224Z,1.91
2018-02-01T21:47:12.805Z,1.91
2018-02-01T21:49:40.324Z,1.89
2018-02-01T21:52:07.821Z,1.90
2018-02-01T21:54:35.349Z,1.90
2018-02-01T21:57:02.972Z,1.92
2018-02-01T21:59:30.538Z,1.94
2018-02-01T22:01:58.105Z,1.92
2018-02-01T22:04:25.626Z,1.93
2018-02-01T22:06:53.214Z,1.94
2018-02-01T22:09:20.763Z,1.93
2018-02-01T22:11:48.315Z,1.98
2018-02-01T22:14:15.865Z,2.05
2018-02-01T22:16:43.465Z,2.13
2018-02-01T22:19:10.994Z,2.18
2018-02-01T22:21:38.516Z,2.24
2018-02-01T22:24:06.009Z,2.28
2018-02-01T22:26:33.536Z,2.26
2018-02-01T22:31:27.859Z,2.20
2018-02-01T22:33:55.396Z,2.18
2018-02-01T22:36:22.902Z,2.16
2018-02-01T22:38:50.416Z,2.12
2018-02-01T22:41:17.913Z,2.10
2018-02-01T22:43:45.458Z,2.07
2018-02-01T22:46:12.998Z,2.01
2018-02-01T22:48:40.523Z,1.97
2018-02-01T22:51:08.164Z,1.91
2018-02-01T22:53:35.680Z,1.88
2018-02-01T22:56:03.312Z,1.86
2018-02-01T22:58:30.855Z,1.82
2018-02-01T23:00:58.398Z,1.80
2018-02-01T23:03:25.973Z,1.78
2018-02-01T23:05:53.475Z,1.81
2018-02-01T23:08:21.078Z,1.83
2018-02-01T23:10:48.602Z,1.84
2018-02-01T23:13:16.147Z,1.95
2018-02-01T23:15:43.681Z,1.98
2018-02-01T23:18:11.226Z,1.98
2018-02-01T23:20:38.770Z,1.99
2018-02-01T23:23:06.335Z,1.99
2018-02-01T23:25:33.850Z,1.98
2018-02-01T23:28:01.405Z,1.97
2018-02-01T23:30:28.900Z,1.99
2018-02-01T23:32:56.401Z,2.02
2018-02-01T23:35:23.909Z,2.04
2018-02-01T23:37:51.440Z,2.06
2018-02-01T23:40:18.944Z,2.08
2018-02-01T23:42:46.477Z,2.05
2018-02-01T23:45:14.008Z,2.05
2018-02-01T23:47:41.643Z,2.04
2018-02-01T23:50:09.168Z,2.00
2018-02-01T23:52:36.733Z,1.94
2018-02-01T23:55:04.238Z,1.89
2018-02-01T23:57:31.761Z,1.85
2018-02-01T23:59:59.253Z,1.81
